logo dgac
Jueves 18 de Julio del 2024
Buscar por aerodromo o helipuerto
Ingrese nombre de aeródromo, localidad o designador OACI:

Aeródromo: El Tepual (PUB) (SCTE)

Ubicación: Puerto Montt, X Región, Chile (41º 26' 20'' S, 73º 05' 38'' W) Ver ubicación en el mapa

Pistas

Luces
Orientación Dimensión Pendiente Superficie Resistencia APCH THR RWY PAPI
17/35 2650 x 45 CONC 54 R/B/W/T Sí (3º)
Horas de operación H24
Elevación 90 m / 294 ft
Otra Información Adm : DGAC.
Uso : PUB
Ubicado a 14 km NW de Puerto Montt
TEL ARO (56) 65 2486221
TEL MET (56) 65-2486361 Anexo 6361 / 65-2486366 Anexo 6366
email : aro.eltepual@dgac.gob.cl

Otra información ver AIP-Chile Volumen I AD 2.7-1 SCTE
CCCM/FCCV Descargar CCCM/FCCV
andera de Chile
Mapa de El Tepual (PUB) (SCTE)

Último METAR

METAR SCTE 181200Z 22007KT 9999 BKN050 05/03 Q1023 NOSIG

Último TAF

TAF SCTE 181043Z 1812/1912 20006KT 9999 SCT030 BKN050 TN05/1813Z TX09/1819Z TEMPO 1816/1820 7000 SHRA BKN020 BECMG 1903/1905 BKN010 BECMG 1908/1910 CAVOK

Últimas fotos cámaras

Imagen aerodromo El Tepual (PUB) (SCTE) Sur tomada el 18-07-2024 12:17:07 Imagen aerodromo El Tepual (PUB) (SCTE) Norte tomada el 18-07-2024 12:17:36

Último NOTAM

W1661/24 NOTAMN Q)SCTZ/QWULW/IV/BO/AW/000/004/4126S07311W001 A)SCTE B)2407221200 C)2409172300 D)DLY BTN 1200-2300 E)RPAS FLT SECT ESCUELA RURAL DE LAGUNITAS PTO MONTT ZONE ...D... RDO 0.08NM WI: 412649S / 073114W INSTRUCTIONS: PUERTO MONTT TWR 118.1MHZ F)GND G)400FT AGL